»·PEaware :: N832PW KKNB-KLGB

N832PW :: KKNB-KLGB

FLIGHT INFORMATION

Flight Status: Arrived
Operator: Privately registered:
United States
More flights under this callsign
Pilot: Justin W. (21172)
Aircraft: PIPER PA-24 COMMANCHE
(PA24)
More flights by this aircraft type
Origin: KKNB Kanab Mun
United States
Destination: KLGB Long Beach
United States
More flights between these airports :: More routes between these airports
Route: PGS GFS HEC PDZ
File this flight plan on PilotEdge
Remarks:
Altitude:
(Current/Filed)
12,500ft
Speed:
(Current/Filed)
150kts
Departed: 05-Jul-20 07:13 PM
Arrived: 05-Jul-20 09:28 PM
Distance/Time
Traveled:
335nm/2:15
Distance/Time
To Go:
Arrived

Flight Plot

Page will automatically refresh every two minutes.

Flight plan parsing failed; only flown route is shown


Map Options




Map Legend


Flown Route
Filed Route
Departure Airport
Arrival Airport
Navaid (VOR, NDB)
Fix

Horizontal Profiles

Position Reports

Time Latitude Longitude Heading Altitude Ground
Speed
05-Jul-20 18:56 37.010010 -112.530336 18 4871ft 0kts
05-Jul-20 18:57 37.010010 -112.530336 18 4871ft 0kts
05-Jul-20 18:58 37.010010 -112.530336 18 4871ft 0kts
05-Jul-20 18:59 37.010010 -112.530336 18 4871ft 0kts
05-Jul-20 19:01 37.010010 -112.530336 18 4871ft 0kts
05-Jul-20 19:02 37.010010 -112.530336 18 4871ft 0kts
05-Jul-20 19:03 37.010010 -112.530336 18 4871ft 0kts
05-Jul-20 19:04 37.010012 -112.530335 18 4871ft 0kts
05-Jul-20 19:05 37.010014 -112.530335 18 4871ft 0kts
05-Jul-20 19:06 37.010016 -112.530334 18 4871ft 0kts
05-Jul-20 19:07 37.010080 -112.530311 6 4871ft 3kts
05-Jul-20 19:08 37.009213 -112.531440 229 4871ft 12kts
05-Jul-20 19:09 37.006440 -112.533423 201 4871ft 19kts
05-Jul-20 19:10 37.002944 -112.535172 205 4871ft 8kts
05-Jul-20 19:11 37.002815 -112.535146 19 4871ft 0kts
05-Jul-20 19:12 37.003281 -112.534932 21 4871ft 31kts
05-Jul-20 19:13 37.024547 -112.524236 358 5585ft 87kts
05-Jul-20 19:14 37.018488 -112.543455 205 6553ft 102kts
05-Jul-20 19:15 36.993042 -112.558420 212 7786ft 97kts
05-Jul-20 19:16 36.968801 -112.576077 202 9023ft 104kts
05-Jul-20 19:16 36.945735 -112.586227 206 10389ft 106kts
05-Jul-20 19:18 36.914095 -112.605050 209 11578ft 110kts
05-Jul-20 19:18 36.890404 -112.618651 211 12598ft 124kts
05-Jul-20 19:19 36.852701 -112.642006 209 12483ft 169kts
05-Jul-20 19:21 36.805386 -112.678824 216 12485ft 170kts
05-Jul-20 19:21 36.773670 -112.708689 219 12492ft 166kts
05-Jul-20 19:22 36.736843 -112.746145 220 12494ft 166kts
05-Jul-20 19:23 36.698243 -112.780731 214 12482ft 165kts
05-Jul-20 19:24 36.660188 -112.809315 211 12489ft 156kts
05-Jul-20 19:25 36.621914 -112.834654 207 12488ft 155kts
05-Jul-20 19:26 36.583320 -112.857276 207 12490ft 153kts
05-Jul-20 19:27 36.545293 -112.881572 209 12494ft 154kts
05-Jul-20 19:28 36.507423 -112.906534 211 12498ft 154kts
05-Jul-20 19:29 36.471187 -112.934957 214 12501ft 154kts
05-Jul-20 19:30 36.434906 -112.963243 213 12503ft 154kts
05-Jul-20 19:31 36.398629 -112.991831 213 12503ft 154kts
05-Jul-20 19:32 36.361943 -113.019723 211 12492ft 156kts
05-Jul-20 19:33 36.323857 -113.045935 209 12467ft 156kts
05-Jul-20 19:34 36.286015 -113.072180 209 12465ft 155kts
05-Jul-20 19:35 36.247951 -113.097689 209 12465ft 155kts
05-Jul-20 19:36 36.210625 -113.124994 211 12464ft 156kts
05-Jul-20 19:37 36.173158 -113.152257 210 12464ft 156kts
05-Jul-20 19:38 36.135769 -113.179900 211 12465ft 156kts
05-Jul-20 19:39 36.101464 -113.211851 231 12462ft 156kts
05-Jul-20 19:40 36.073754 -113.253303 230 12454ft 157kts
05-Jul-20 19:41 36.045811 -113.294887 231 12451ft 157kts
05-Jul-20 19:42 36.017998 -113.336824 229 12447ft 158kts
05-Jul-20 19:43 35.989862 -113.378890 229 12444ft 158kts
05-Jul-20 19:44 35.962160 -113.421281 229 12438ft 159kts
05-Jul-20 19:45 35.934160 -113.463818 228 12426ft 160kts
05-Jul-20 19:46 35.905980 -113.506507 229 12423ft 160kts
05-Jul-20 19:47 35.877880 -113.549189 229 12419ft 160kts
05-Jul-20 19:48 35.849717 -113.591954 230 12416ft 161kts
05-Jul-20 19:49 35.821195 -113.634968 228 12361ft 162kts
05-Jul-20 19:50 35.792730 -113.677939 229 12359ft 161kts
05-Jul-20 19:51 35.764503 -113.720710 228 12356ft 161kts
05-Jul-20 19:52 35.736156 -113.763595 228 12355ft 161kts
05-Jul-20 19:53 35.707750 -113.806155 228 12353ft 161kts
05-Jul-20 19:54 35.679395 -113.848793 228 12355ft 161kts
05-Jul-20 19:55 35.650784 -113.891355 228 12355ft 161kts
05-Jul-20 19:56 35.622208 -113.933965 228 12355ft 161kts
05-Jul-20 19:57 35.593314 -113.976742 228 12296ft 162kts
05-Jul-20 19:58 35.564572 -114.019460 227 12295ft 161kts
05-Jul-20 19:59 35.535919 -114.061873 228 12296ft 162kts
05-Jul-20 20:00 35.505967 -114.103266 224 12292ft 161kts
05-Jul-20 20:01 35.477095 -114.145567 228 12288ft 161kts
05-Jul-20 20:02 35.447615 -114.187385 224 12280ft 161kts
05-Jul-20 20:03 35.417491 -114.228231 232 12267ft 162kts
05-Jul-20 20:04 35.397453 -114.277888 251 12247ft 164kts
05-Jul-20 20:05 35.385798 -114.332023 255 12220ft 164kts
05-Jul-20 20:06 35.375229 -114.386662 254 12194ft 164kts
05-Jul-20 20:07 35.362061 -114.440378 249 12171ft 164kts
05-Jul-20 20:08 35.345381 -114.492374 246 12153ft 163kts
05-Jul-20 20:09 35.328953 -114.544243 248 12146ft 163kts
05-Jul-20 20:10 35.313710 -114.596908 251 12118ft 164kts
05-Jul-20 20:11 35.301741 -114.650830 254 12123ft 163kts
05-Jul-20 20:12 35.291016 -114.705050 256 12124ft 164kts
05-Jul-20 20:13 35.279960 -114.759184 253 12128ft 163kts
05-Jul-20 20:14 35.266421 -114.812281 249 12132ft 163kts
05-Jul-20 20:15 35.250522 -114.864475 247 12145ft 162kts
05-Jul-20 20:16 35.234222 -114.916360 246 12153ft 163kts
05-Jul-20 20:17 35.217170 -114.967996 246 12160ft 163kts
05-Jul-20 20:18 35.201400 -115.020185 250 12168ft 164kts
05-Jul-20 20:19 35.186849 -115.072996 250 12174ft 163kts
05-Jul-20 20:20 35.173013 -115.126097 252 12181ft 163kts
05-Jul-20 20:21 35.159470 -115.179288 251 12181ft 164kts
05-Jul-20 20:22 35.144942 -115.232277 251 12167ft 165kts
05-Jul-20 20:23 35.130207 -115.285709 249 12169ft 165kts
05-Jul-20 20:24 35.114290 -115.338353 249 12175ft 165kts
05-Jul-20 20:25 35.099344 -115.391344 250 12183ft 164kts
05-Jul-20 20:26 35.084074 -115.444023 249 12189ft 164kts
05-Jul-20 20:27 35.069026 -115.496924 252 12198ft 164kts
05-Jul-20 20:28 35.054672 -115.549840 250 12205ft 164kts
05-Jul-20 20:29 35.039868 -115.602839 251 12213ft 165kts
05-Jul-20 20:30 35.025669 -115.656080 251 12243ft 163kts
05-Jul-20 20:31 35.010328 -115.708468 249 12263ft 164kts
05-Jul-20 20:32 34.995176 -115.761260 251 12267ft 165kts
05-Jul-20 20:33 34.980224 -115.814267 250 12271ft 165kts
05-Jul-20 20:34 34.964887 -115.867084 251 12272ft 165kts
05-Jul-20 20:35 34.950471 -115.920541 251 12276ft 166kts
05-Jul-20 20:36 34.935092 -115.973750 250 12280ft 166kts
05-Jul-20 20:37 34.920472 -116.027218 252 12284ft 166kts
05-Jul-20 20:38 34.905140 -116.079355 250 12493ft 154kts
05-Jul-20 20:39 34.890955 -116.130538 253 12526ft 162kts
05-Jul-20 20:40 34.876165 -116.183143 250 12528ft 164kts
05-Jul-20 20:41 34.861137 -116.235786 252 12526ft 164kts
05-Jul-20 20:42 34.846440 -116.288616 250 12557ft 163kts
05-Jul-20 20:43 34.831514 -116.340444 252 12587ft 163kts
05-Jul-20 20:44 34.816877 -116.392897 251 12583ft 164kts
05-Jul-20 20:45 34.801897 -116.445586 251 12577ft 164kts
05-Jul-20 20:46 34.775465 -116.488984 219 12576ft 164kts
05-Jul-20 20:47 34.741081 -116.525791 222 12574ft 164kts
05-Jul-20 20:48 34.708533 -116.564658 225 12577ft 164kts
05-Jul-20 20:49 34.677122 -116.605017 227 12586ft 164kts
05-Jul-20 20:50 34.646187 -116.646183 227 12595ft 164kts
05-Jul-20 20:51 34.614904 -116.686829 225 12613ft 164kts
05-Jul-20 20:52 34.582791 -116.725966 224 12643ft 163kts
05-Jul-20 20:53 34.550295 -116.764476 223 12681ft 163kts
05-Jul-20 20:54 34.517734 -116.802753 224 12720ft 163kts
05-Jul-20 20:55 34.485594 -116.841739 225 12759ft 163kts
05-Jul-20 20:56 34.453787 -116.880922 225 12784ft 163kts
05-Jul-20 20:57 34.421917 -116.920367 225 12807ft 163kts
05-Jul-20 20:58 34.390007 -116.959437 225 12818ft 163kts
05-Jul-20 20:59 34.357868 -116.998307 225 12816ft 163kts
05-Jul-20 21:00 34.326102 -117.036762 225 12768ft 160kts
05-Jul-20 21:02 34.293976 -117.075803 225 12419ft 162kts
05-Jul-20 21:03 34.262242 -117.114438 225 11882ft 161kts
05-Jul-20 21:04 34.230808 -117.152470 225 11098ft 160kts
05-Jul-20 21:05 34.199395 -117.190385 225 9897ft 158kts
05-Jul-20 21:06 34.168115 -117.228214 226 9509ft 163kts
05-Jul-20 21:07 34.136210 -117.266885 226 9485ft 160kts
05-Jul-20 21:08 34.104776 -117.305135 226 9219ft 165kts
05-Jul-20 21:09 34.073067 -117.343473 226 8441ft 162kts
05-Jul-20 21:10 34.041638 -117.381211 227 7545ft 157kts
05-Jul-20 21:11 34.011015 -117.418320 227 6418ft 157kts
05-Jul-20 21:12 33.980808 -117.454808 227 5212ft 154kts
05-Jul-20 21:13 33.951116 -117.490565 226 4033ft 148kts
05-Jul-20 21:14 33.921951 -117.525706 229 3544ft 150kts
05-Jul-20 21:15 33.906318 -117.571791 252 3506ft 149kts
05-Jul-20 21:16 33.896414 -117.620535 258 3516ft 149kts
05-Jul-20 21:17 33.890579 -117.669877 268 3529ft 148kts
05-Jul-20 21:18 33.885308 -117.718935 254 3531ft 147kts
05-Jul-20 21:18 33.875345 -117.758982 254 3588ft 150kts
05-Jul-20 21:20 33.863443 -117.816383 256 3588ft 152kts
05-Jul-20 21:21 33.854706 -117.866135 258 3497ft 152kts
05-Jul-20 21:21 33.847560 -117.907535 260 3555ft 152kts
05-Jul-20 21:23 33.838526 -117.966143 258 3487ft 152kts
05-Jul-20 21:23 33.834046 -118.008476 262 3456ft 152kts
05-Jul-20 21:25 33.824138 -118.067512 258 1899ft 156kts
05-Jul-20 21:25 33.821994 -118.101479 273 1053ft 101kts
05-Jul-20 21:26 33.822488 -118.132753 273 350ft 84kts
05-Jul-20 21:27 33.822689 -118.153119 269 63ft 15kts
05-Jul-20 21:28 33.821722 -118.153698 151 63ft 10kts

Navigation Log

Ident Type
Flight plan parsing failed, navigation log unavailable